createdAt,value
2018-07-21T00:00:11.340Z,20.98
2018-07-21T00:01:11.337Z,21.00
2018-07-21T00:02:11.337Z,21.01
2018-07-21T00:03:11.334Z,20.98
2018-07-21T00:04:11.339Z,21.11
2018-07-21T00:05:11.334Z,21.12
2018-07-21T00:06:11.332Z,21.09
2018-07-21T00:07:11.333Z,20.98
2018-07-21T00:08:11.328Z,21.05
2018-07-21T00:09:11.329Z,20.98
2018-07-21T00:10:11.331Z,21.05
2018-07-21T00:11:11.322Z,20.98
2018-07-21T00:12:11.319Z,20.98
2018-07-21T00:13:11.315Z,21.06
2018-07-21T00:14:11.369Z,21.01
2018-07-21T00:15:11.315Z,21.00
2018-07-21T00:16:11.311Z,21.00
2018-07-21T00:17:11.309Z,20.98
2018-07-21T00:18:11.314Z,20.96
2018-07-21T00:19:11.309Z,20.94
2018-07-21T00:20:11.304Z,20.97
2018-07-21T00:21:11.301Z,20.96
2018-07-21T00:22:11.302Z,21.05
2018-07-21T00:23:11.306Z,21.00
2018-07-21T00:24:11.301Z,21.00
2018-07-21T00:25:11.301Z,21.03
2018-07-21T00:26:11.293Z,21.00
2018-07-21T00:27:11.297Z,21.00
2018-07-21T00:28:11.291Z,20.93
2018-07-21T00:29:11.287Z,21.00
2018-07-21T00:30:11.288Z,21.01
2018-07-21T00:31:11.283Z,21.00
2018-07-21T00:32:11.280Z,21.00
2018-07-21T00:33:11.278Z,21.08
2018-07-21T00:34:11.281Z,21.08
2018-07-21T00:35:11.281Z,21.01
2018-07-21T00:36:11.276Z,21.00
2018-07-21T00:37:11.275Z,21.00
2018-07-21T00:38:11.272Z,20.91
2018-07-21T00:39:11.272Z,21.03
2018-07-21T00:40:11.267Z,20.94
2018-07-21T00:41:11.267Z,20.93
2018-07-21T00:42:11.267Z,20.91
2018-07-21T00:43:11.271Z,20.93
2018-07-21T00:44:11.325Z,20.93
2018-07-21T00:45:11.257Z,20.93
2018-07-21T00:46:11.372Z,20.91
2018-07-21T00:47:11.254Z,20.97
2018-07-21T00:48:11.334Z,20.90
2018-07-21T00:49:11.252Z,20.94
2018-07-21T00:50:11.251Z,20.94
2018-07-21T00:51:11.243Z,20.94
2018-07-21T00:52:11.240Z,20.97
2018-07-21T00:53:11.243Z,20.94
2018-07-21T00:54:11.239Z,20.97
2018-07-21T00:55:11.239Z,20.90
2018-07-21T00:56:11.233Z,20.90
2018-07-21T00:57:11.267Z,20.85
2018-07-21T00:58:11.234Z,20.93
2018-07-21T00:59:11.227Z,20.93
2018-07-21T01:00:11.224Z,20.88
2018-07-21T01:01:11.222Z,20.75
2018-07-21T01:02:11.227Z,20.87
2018-07-21T01:03:11.219Z,20.73
2018-07-21T01:04:11.215Z,20.75
2018-07-21T01:05:11.215Z,20.76
2018-07-21T01:06:11.219Z,20.69
2018-07-21T01:07:11.219Z,20.61
2018-07-21T01:08:11.212Z,20.72
2018-07-21T01:09:11.207Z,20.60
2018-07-21T01:10:11.207Z,20.72
2018-07-21T01:11:11.219Z,20.64
2018-07-21T01:12:11.205Z,20.68
2018-07-21T01:13:11.198Z,20.69
2018-07-21T01:14:11.195Z,20.61
2018-07-21T01:15:11.195Z,20.58
2018-07-21T01:16:11.191Z,20.57
2018-07-21T01:17:11.190Z,20.56
2018-07-21T01:18:11.187Z,20.64
2018-07-21T01:19:11.186Z,20.69
2018-07-21T01:20:11.188Z,20.64
2018-07-21T01:21:11.179Z,20.61
2018-07-21T01:22:11.180Z,20.72
2018-07-21T01:23:11.175Z,20.66
2018-07-21T01:24:11.178Z,20.61
2018-07-21T01:25:11.179Z,20.69
2018-07-21T01:26:11.170Z,20.64
2018-07-21T01:27:11.172Z,20.71
2018-07-21T01:28:11.172Z,20.66
2018-07-21T01:29:11.165Z,20.61
2018-07-21T01:30:11.162Z,20.72
2018-07-21T01:31:11.162Z,20.71
2018-07-21T01:32:11.160Z,20.64
2018-07-21T01:33:11.156Z,20.61
2018-07-21T01:34:11.156Z,20.61
2018-07-21T01:35:11.153Z,20.66
2018-07-21T01:36:11.148Z,20.63
2018-07-21T01:37:11.146Z,20.78
2018-07-21T01:38:11.143Z,20.79
2018-07-21T01:39:11.148Z,20.64
2018-07-21T01:40:11.140Z,20.71
2018-07-21T01:41:11.140Z,20.64
2018-07-21T01:42:11.136Z,20.72
2018-07-21T01:43:11.138Z,20.64
2018-07-21T01:44:11.132Z,20.68
2018-07-21T01:45:11.130Z,20.69
2018-07-21T01:46:11.128Z,20.56
2018-07-21T01:47:11.126Z,20.50
2018-07-21T01:48:11.128Z,20.58
2018-07-21T01:49:11.122Z,20.63
2018-07-21T01:50:11.125Z,20.56
2018-07-21T01:51:11.117Z,20.53
2018-07-21T01:52:11.119Z,20.63
2018-07-21T01:53:11.112Z,20.57
2018-07-21T01:54:11.112Z,20.56
2018-07-21T01:55:11.108Z,20.60
2018-07-21T01:56:11.106Z,20.58
2018-07-21T01:57:11.111Z,20.53
2018-07-21T01:58:11.103Z,20.66
2018-07-21T01:59:11.101Z,20.61
2018-07-21T02:00:11.097Z,20.72
2018-07-21T02:01:11.096Z,20.64
2018-07-21T02:02:11.095Z,20.61
2018-07-21T02:03:11.099Z,20.63
2018-07-21T02:04:11.089Z,20.64
2018-07-21T02:05:11.089Z,20.69
2018-07-21T02:06:11.088Z,20.64
2018-07-21T02:07:11.088Z,20.51
2018-07-21T02:08:11.082Z,20.63
2018-07-21T02:09:11.083Z,20.58
2018-07-21T02:10:11.078Z,20.68
2018-07-21T02:11:11.077Z,20.63
2018-07-21T02:12:11.080Z,20.48
2018-07-21T02:13:11.072Z,20.50
2018-07-21T02:14:11.067Z,20.56
2018-07-21T02:15:11.068Z,20.51
2018-07-21T02:16:11.063Z,20.48
2018-07-21T02:17:11.065Z,20.40
2018-07-21T02:18:11.061Z,20.33
2018-07-21T02:19:11.058Z,20.34
2018-07-21T02:20:11.054Z,20.33
2018-07-21T02:21:11.052Z,20.44
2018-07-21T02:22:11.052Z,20.51
2018-07-21T02:23:11.047Z,20.48
2018-07-21T02:24:11.046Z,20.51
2018-07-21T02:25:11.042Z,20.51
2018-07-21T02:26:11.041Z,20.53
2018-07-21T02:27:11.038Z,20.58
2018-07-21T02:28:11.039Z,20.66
2018-07-21T02:29:11.032Z,20.75
2018-07-21T02:30:11.033Z,20.75
2018-07-21T02:31:11.031Z,20.82
2018-07-21T02:32:11.099Z,20.75
2018-07-21T02:33:11.025Z,20.64
2018-07-21T02:34:11.021Z,20.63
2018-07-21T02:35:11.020Z,20.63
2018-07-21T02:36:11.016Z,20.69
2018-07-21T02:37:11.019Z,20.56
2018-07-21T02:38:11.012Z,20.63
2018-07-21T02:39:11.010Z,20.60
2018-07-21T02:40:11.013Z,20.48
2018-07-21T02:41:11.008Z,20.46
2018-07-21T02:42:11.006Z,20.57
2018-07-21T02:43:11.004Z,20.50
2018-07-21T02:44:10.997Z,20.41
2018-07-21T02:45:10.994Z,20.41
2018-07-21T02:46:10.997Z,20.46
2018-07-21T02:47:10.995Z,20.46
2018-07-21T02:48:10.989Z,20.50
2018-07-21T02:49:10.991Z,20.50
2018-07-21T02:50:10.990Z,20.56
2018-07-21T02:51:10.982Z,20.54
2018-07-21T02:52:10.980Z,20.44
2018-07-21T02:53:10.977Z,20.57
2018-07-21T02:54:10.977Z,20.54
2018-07-21T02:55:10.980Z,20.46
2018-07-21T02:56:10.971Z,20.58
2018-07-21T02:57:10.971Z,20.50
2018-07-21T02:58:10.967Z,20.51
2018-07-21T02:59:10.970Z,20.50
2018-07-21T03:00:10.962Z,20.50
2018-07-21T03:01:10.964Z,20.46
2018-07-21T03:02:10.965Z,20.60
2018-07-21T03:03:10.955Z,20.61
2018-07-21T03:04:10.954Z,20.61
2018-07-21T03:05:10.954Z,20.58
2018-07-21T03:06:10.948Z,20.53
2018-07-21T03:07:10.946Z,20.46
2018-07-21T03:08:10.950Z,20.44
2018-07-21T03:09:10.941Z,20.50
2018-07-21T03:10:10.942Z,20.50
2018-07-21T03:11:10.938Z,20.50
2018-07-21T03:12:10.933Z,20.54
2018-07-21T03:13:10.934Z,20.51
2018-07-21T03:14:10.935Z,20.51
2018-07-21T03:15:10.927Z,20.50
2018-07-21T03:16:10.928Z,20.48
2018-07-21T03:17:10.921Z,20.54
2018-07-21T03:18:10.922Z,20.46
2018-07-21T03:19:10.917Z,20.44
2018-07-21T03:20:10.915Z,20.41
2018-07-21T03:21:10.914Z,20.37
2018-07-21T03:22:10.910Z,20.41
2018-07-21T03:23:10.948Z,20.42
2018-07-21T03:24:10.905Z,20.48
2018-07-21T03:25:10.903Z,20.35
2018-07-21T03:26:10.900Z,20.31
2018-07-21T03:27:10.904Z,20.34
2018-07-21T03:28:10.902Z,20.33
2018-07-21T03:29:10.892Z,20.40
2018-07-21T03:30:10.894Z,20.35
2018-07-21T03:31:10.895Z,20.31
2018-07-21T03:32:10.903Z,20.33
2018-07-21T03:33:10.883Z,20.30
2018-07-21T03:34:10.886Z,20.30
2018-07-21T03:35:10.882Z,20.26
2018-07-21T03:36:10.879Z,20.30
2018-07-21T03:37:10.875Z,20.30
2018-07-21T03:38:10.877Z,20.23
2018-07-21T03:39:10.873Z,20.30
2018-07-21T03:40:10.866Z,20.27
2018-07-21T03:41:10.873Z,20.26
2018-07-21T03:42:10.869Z,20.31
2018-07-21T03:43:10.859Z,20.25
2018-07-21T03:44:10.858Z,20.33
2018-07-21T03:45:10.857Z,20.35
2018-07-21T03:46:10.855Z,20.31
2018-07-21T03:47:10.850Z,20.37
2018-07-21T03:48:10.846Z,20.37
2018-07-21T03:49:10.847Z,20.50
2018-07-21T03:50:10.848Z,20.44
2018-07-21T03:51:10.845Z,20.46
2018-07-21T03:52:10.841Z,20.48
2018-07-21T03:53:10.835Z,20.53
2018-07-21T03:54:10.836Z,20.46
2018-07-21T03:55:10.875Z,20.50
2018-07-21T03:56:10.831Z,20.46
2018-07-21T03:57:10.831Z,20.38
2018-07-21T03:58:10.825Z,20.34
2018-07-21T03:59:10.822Z,20.27
2018-07-21T04:00:10.818Z,20.40
2018-07-21T04:01:10.822Z,20.37
2018-07-21T04:02:10.819Z,20.27
2018-07-21T04:03:10.820Z,20.30
2018-07-21T04:04:10.812Z,20.31
2018-07-21T04:05:10.811Z,20.23
2018-07-21T04:06:10.807Z,20.25
2018-07-21T04:07:10.803Z,20.33
2018-07-21T04:08:10.802Z,20.31
2018-07-21T04:09:10.797Z,20.27
2018-07-21T04:10:10.794Z,20.26
2018-07-21T04:11:10.792Z,20.26
2018-07-21T04:12:10.790Z,20.19
2018-07-21T04:13:10.788Z,20.33
2018-07-21T04:14:10.793Z,20.26
2018-07-21T04:15:10.784Z,20.38
2018-07-21T04:16:10.780Z,20.35
2018-07-21T04:17:10.780Z,20.40
2018-07-21T04:18:10.778Z,20.25
2018-07-21T04:19:10.786Z,20.25
2018-07-21T04:20:10.770Z,20.35
2018-07-21T04:21:10.771Z,20.31
2018-07-21T04:22:10.767Z,20.33
2018-07-21T04:23:10.769Z,20.30
2018-07-21T04:24:10.776Z,20.30
2018-07-21T04:25:10.764Z,20.27
2018-07-21T04:26:10.759Z,20.25
2018-07-21T04:27:10.756Z,20.25
2018-07-21T04:28:10.759Z,20.19
2018-07-21T04:29:10.749Z,20.25
2018-07-21T04:30:10.753Z,20.19
2018-07-21T04:31:10.744Z,20.16
2018-07-21T04:32:10.743Z,20.19
2018-07-21T04:33:10.742Z,20.19
2018-07-21T04:34:10.741Z,20.15
2018-07-21T04:35:10.734Z,20.16
2018-07-21T04:36:10.734Z,20.15
2018-07-21T04:37:10.731Z,20.16
2018-07-21T04:38:10.732Z,20.22
2018-07-21T04:39:10.733Z,20.27
2018-07-21T04:40:10.731Z,20.23
2018-07-21T04:41:10.722Z,20.38
2018-07-21T04:42:10.720Z,20.35
2018-07-21T04:43:10.718Z,20.34
2018-07-21T04:44:10.713Z,20.37
2018-07-21T04:45:10.711Z,20.31
2018-07-21T04:46:10.713Z,20.37
2018-07-21T04:47:10.708Z,20.46
2018-07-21T04:48:10.705Z,20.50
2018-07-21T04:49:10.701Z,20.48
2018-07-21T04:50:10.698Z,20.46
2018-07-21T04:51:10.696Z,20.57
2018-07-21T04:52:10.694Z,20.61
2018-07-21T04:53:10.690Z,20.61
2018-07-21T04:54:10.690Z,20.64
2018-07-21T04:55:10.690Z,20.68
2018-07-21T04:56:10.685Z,20.58
2018-07-21T04:57:10.684Z,20.56
2018-07-21T04:58:10.683Z,20.66
2018-07-21T04:59:10.683Z,20.50
2018-07-21T05:00:10.680Z,20.46
2018-07-21T05:01:10.672Z,20.50
2018-07-21T05:02:10.670Z,20.53
2018-07-21T05:03:10.671Z,20.46
2018-07-21T05:04:10.665Z,20.46
2018-07-21T05:05:10.668Z,20.37
2018-07-21T05:06:10.661Z,20.35
2018-07-21T05:07:10.669Z,20.33
2018-07-21T05:08:10.660Z,20.34
2018-07-21T05:09:10.659Z,20.34
2018-07-21T05:10:10.661Z,20.38
2018-07-21T05:11:10.652Z,20.48
2018-07-21T05:12:10.646Z,20.46
2018-07-21T05:13:10.650Z,20.46
2018-07-21T05:14:10.646Z,20.41
2018-07-21T05:15:10.640Z,20.44
2018-07-21T05:16:10.637Z,20.46
2018-07-21T05:17:10.635Z,20.51
2018-07-21T05:18:10.636Z,20.46
2018-07-21T05:19:10.630Z,20.50
2018-07-21T05:20:10.678Z,20.57
2018-07-21T05:21:10.626Z,20.56
2018-07-21T05:22:10.628Z,20.54
2018-07-21T05:23:10.626Z,20.53
2018-07-21T05:24:10.618Z,20.46
2018-07-21T05:25:10.621Z,20.53
2018-07-21T05:26:10.621Z,20.50
2018-07-21T05:27:10.616Z,20.44
2018-07-21T05:28:10.611Z,20.46
2018-07-21T05:29:10.608Z,20.51
2018-07-21T05:30:10.606Z,20.51
2018-07-21T05:31:10.608Z,20.54
2018-07-21T05:32:10.600Z,20.46
2018-07-21T05:33:10.599Z,20.53
2018-07-21T05:34:10.594Z,20.51
2018-07-21T05:35:10.601Z,20.53
2018-07-21T05:36:10.592Z,20.51
2018-07-21T05:37:10.589Z,20.51
2018-07-21T05:38:10.586Z,20.46
2018-07-21T05:39:10.603Z,20.54
2018-07-21T05:40:10.581Z,20.50
2018-07-21T05:41:10.584Z,20.54
2018-07-21T05:42:10.582Z,20.50
2018-07-21T05:43:10.581Z,20.58
2018-07-21T05:44:10.571Z,20.64
2018-07-21T05:45:10.629Z,20.61
2018-07-21T05:46:10.569Z,20.51
2018-07-21T05:47:10.566Z,20.63
2018-07-21T05:48:10.563Z,20.54
2018-07-21T05:49:10.560Z,20.61
2018-07-21T05:50:10.556Z,20.56
2018-07-21T05:51:10.557Z,20.51
2018-07-21T05:52:10.560Z,20.63
2018-07-21T05:53:10.579Z,20.64
2018-07-21T05:54:10.547Z,20.61
2018-07-21T05:55:10.546Z,20.64
2018-07-21T05:56:10.548Z,20.64
2018-07-21T05:57:10.541Z,20.68
2018-07-21T05:58:10.545Z,20.73
2018-07-21T05:59:10.537Z,20.91
2018-07-21T06:00:10.543Z,20.91
2018-07-21T06:01:10.540Z,20.90
2018-07-21T06:02:10.529Z,20.94
2018-07-21T06:03:10.655Z,21.03
2018-07-21T06:04:10.528Z,21.22
2018-07-21T06:05:10.524Z,21.34
2018-07-21T06:06:10.524Z,21.52
2018-07-21T06:07:10.530Z,21.53
2018-07-21T06:08:10.518Z,21.58
2018-07-21T06:09:10.515Z,21.63
2018-07-21T06:10:10.518Z,21.74
2018-07-21T06:11:10.560Z,21.75
2018-07-21T06:12:10.509Z,21.89
2018-07-21T06:13:10.512Z,21.82
2018-07-21T06:14:10.513Z,21.81
2018-07-21T06:15:10.507Z,21.61
2018-07-21T06:16:10.503Z,21.66
2018-07-21T06:17:10.501Z,21.68
2018-07-21T06:18:10.502Z,21.70
2018-07-21T06:19:10.497Z,21.77
2018-07-21T06:20:10.495Z,21.74
2018-07-21T06:21:10.494Z,21.73
2018-07-21T06:22:10.493Z,21.93
2018-07-21T06:23:10.491Z,21.94
2018-07-21T06:24:10.490Z,22.01
2018-07-21T06:25:10.496Z,22.05
2018-07-21T06:26:10.492Z,22.20
2018-07-21T06:27:10.487Z,22.35
2018-07-21T06:28:10.513Z,22.39
2018-07-21T06:29:10.482Z,22.52
2018-07-21T06:30:10.494Z,22.70
2018-07-21T06:31:10.479Z,22.86
2018-07-21T06:32:10.476Z,23.07
2018-07-21T06:33:10.477Z,23.23
2018-07-21T06:34:10.474Z,23.37
2018-07-21T06:35:10.473Z,23.50
2018-07-21T06:36:10.474Z,23.62
2018-07-21T06:37:10.475Z,23.67
2018-07-21T06:38:10.471Z,23.78
2018-07-21T06:39:10.470Z,23.74
2018-07-21T06:40:10.471Z,23.67
2018-07-21T06:41:10.478Z,23.59
2018-07-21T06:42:10.470Z,23.47
2018-07-21T06:43:10.534Z,23.38
2018-07-21T06:44:10.471Z,23.38
2018-07-21T06:45:10.466Z,23.26
2018-07-21T06:46:10.471Z,23.19
2018-07-21T06:47:10.465Z,23.19
2018-07-21T06:48:10.464Z,23.11
2018-07-21T06:49:10.463Z,23.12
2018-07-21T06:50:10.467Z,22.96
2018-07-21T06:51:10.465Z,22.99
2018-07-21T06:52:10.466Z,22.91
2018-07-21T06:53:10.459Z,22.85
2018-07-21T06:54:10.463Z,22.88
2018-07-21T06:55:10.465Z,22.84
2018-07-21T06:56:10.457Z,22.75
2018-07-21T06:57:10.459Z,22.66
2018-07-21T06:58:10.462Z,22.72
2018-07-21T06:59:10.476Z,22.69
2018-07-21T07:00:10.456Z,22.70
2018-07-21T07:01:10.460Z,22.67
2018-07-21T07:02:10.454Z,22.69
2018-07-21T07:03:10.452Z,22.59
2018-07-21T07:04:10.454Z,22.52
2018-07-21T07:05:10.451Z,22.59
2018-07-21T07:06:10.449Z,22.60
2018-07-21T07:07:10.449Z,22.54
2018-07-21T07:08:10.449Z,22.48
2018-07-21T07:09:10.453Z,22.48
2018-07-21T07:10:10.452Z,22.46
2018-07-21T07:11:10.450Z,22.45
2018-07-21T07:12:10.444Z,22.39
2018-07-21T07:13:10.442Z,22.45
2018-07-21T07:14:10.447Z,22.42
2018-07-21T07:15:10.441Z,22.45
2018-07-21T07:16:10.441Z,22.57
2018-07-21T07:17:10.439Z,22.52
2018-07-21T07:18:10.437Z,22.59
2018-07-21T07:19:10.437Z,22.61
2018-07-21T07:20:10.435Z,22.69
2018-07-21T07:21:10.433Z,22.72
2018-07-21T07:22:10.439Z,22.76
2018-07-21T07:23:10.440Z,22.81
2018-07-21T07:24:10.429Z,22.76
2018-07-21T07:25:10.429Z,22.76
2018-07-21T07:26:10.430Z,22.76
2018-07-21T07:27:10.431Z,22.75
2018-07-21T07:28:10.427Z,22.81
2018-07-21T07:29:10.428Z,22.81
2018-07-21T07:30:10.428Z,22.81
2018-07-21T07:31:10.429Z,22.76
2018-07-21T07:32:10.423Z,22.75
2018-07-21T07:33:10.423Z,22.69
2018-07-21T07:34:10.427Z,22.72
2018-07-21T07:35:10.442Z,22.60
2018-07-21T07:36:10.435Z,22.63
2018-07-21T07:37:10.419Z,22.57
2018-07-21T07:38:10.420Z,22.57
2018-07-21T07:39:10.418Z,22.52
2018-07-21T07:40:10.420Z,22.46
2018-07-21T07:41:10.416Z,22.45
2018-07-21T07:42:10.421Z,22.46
2018-07-21T07:43:10.415Z,22.45
2018-07-21T07:44:10.412Z,22.46
2018-07-21T07:45:10.416Z,22.48
2018-07-21T07:46:10.417Z,22.41
2018-07-21T07:47:10.414Z,22.27
2018-07-21T07:48:10.410Z,22.30
2018-07-21T07:49:10.415Z,22.21
2018-07-21T07:50:10.410Z,22.21
2018-07-21T07:51:10.409Z,22.14
2018-07-21T07:52:10.412Z,22.08
2018-07-21T07:53:10.406Z,22.06
2018-07-21T07:54:10.404Z,21.99
2018-07-21T07:55:10.409Z,22.01
2018-07-21T07:56:10.404Z,21.93
2018-07-21T07:57:10.402Z,21.96
2018-07-21T07:58:10.402Z,22.02
2018-07-21T07:59:10.409Z,21.93
2018-07-21T08:00:10.405Z,22.04
2018-07-21T08:01:10.447Z,22.02
2018-07-21T08:02:10.401Z,21.94
2018-07-21T08:03:10.397Z,21.90
2018-07-21T08:04:10.394Z,21.93
2018-07-21T08:05:10.400Z,21.96
2018-07-21T08:06:10.400Z,21.98
2018-07-21T08:07:10.394Z,21.96
2018-07-21T08:08:10.391Z,22.08
2018-07-21T08:09:10.391Z,22.05
2018-07-21T08:10:10.389Z,21.99
2018-07-21T08:11:10.386Z,22.05
2018-07-21T08:12:10.385Z,22.14
2018-07-21T08:13:10.388Z,22.09
2018-07-21T08:14:10.398Z,22.05
2018-07-21T08:15:10.382Z,22.02
2018-07-21T08:16:10.382Z,22.19
2018-07-21T08:17:10.385Z,22.11
2018-07-21T08:18:10.392Z,22.15
2018-07-21T08:19:10.379Z,22.09
2018-07-21T08:20:10.374Z,22.20
2018-07-21T08:21:10.375Z,22.24
2018-07-21T08:22:10.382Z,22.19
2018-07-21T08:23:10.372Z,22.21
2018-07-21T08:24:10.370Z,22.26
2018-07-21T08:25:10.371Z,22.27
2018-07-21T08:26:10.368Z,22.29
2018-07-21T08:27:10.367Z,22.36
2018-07-21T08:28:10.369Z,22.29
2018-07-21T08:29:10.442Z,22.42
2018-07-21T08:30:10.363Z,22.48
2018-07-21T08:31:10.367Z,22.59
2018-07-21T08:32:10.362Z,22.63
2018-07-21T08:33:10.361Z,22.45
2018-07-21T08:34:10.359Z,22.49
2018-07-21T08:35:10.364Z,22.59
2018-07-21T08:36:10.359Z,22.67
2018-07-21T08:37:10.359Z,22.82
2018-07-21T08:38:10.407Z,22.91
2018-07-21T08:39:10.360Z,22.97
2018-07-21T08:40:10.351Z,23.04
2018-07-21T08:41:10.453Z,23.03
2018-07-21T08:42:10.351Z,23.04
2018-07-21T08:43:10.353Z,23.06
2018-07-21T08:44:10.350Z,23.12
2018-07-21T08:45:10.356Z,23.18
2018-07-21T08:46:10.349Z,23.31
2018-07-21T08:47:10.348Z,23.25
2018-07-21T08:48:10.347Z,23.34
2018-07-21T08:49:10.349Z,23.35
2018-07-21T08:50:10.346Z,23.38
2018-07-21T08:51:10.346Z,23.44
2018-07-21T08:52:10.345Z,23.49
2018-07-21T08:53:10.344Z,23.44
2018-07-21T08:54:10.350Z,23.45
2018-07-21T08:55:10.342Z,23.52
2018-07-21T08:56:10.424Z,23.59
2018-07-21T08:57:10.341Z,23.63
2018-07-21T08:58:10.344Z,23.72
2018-07-21T08:59:10.346Z,23.63
2018-07-21T09:00:10.339Z,23.62
2018-07-21T09:01:10.341Z,23.68
2018-07-21T09:02:10.339Z,23.64
2018-07-21T09:03:10.339Z,23.78
2018-07-21T09:04:10.337Z,23.78
2018-07-21T09:05:10.344Z,23.84
2018-07-21T09:06:10.337Z,23.84
2018-07-21T09:07:10.337Z,23.93
2018-07-21T09:08:10.341Z,23.97
2018-07-21T09:09:10.337Z,23.99
2018-07-21T09:10:10.337Z,23.97
2018-07-21T09:11:10.340Z,23.99
2018-07-21T09:12:10.342Z,24.05
2018-07-21T09:13:10.431Z,24.05
2018-07-21T09:14:10.343Z,24.12
2018-07-21T09:15:10.335Z,24.05
2018-07-21T09:16:10.335Z,24.14
2018-07-21T09:17:10.341Z,24.12
2018-07-21T09:18:10.336Z,24.08
2018-07-21T09:19:10.338Z,24.11
2018-07-21T09:20:10.336Z,24.16
2018-07-21T09:21:10.341Z,24.14
2018-07-21T09:22:10.336Z,24.12
2018-07-21T09:23:10.333Z,24.11
2018-07-21T09:24:10.331Z,24.09
2018-07-21T09:25:10.339Z,24.05
2018-07-21T09:26:10.334Z,24.04
2018-07-21T09:27:10.340Z,23.99
2018-07-21T09:28:10.364Z,23.84
2018-07-21T09:29:10.339Z,23.93
2018-07-21T09:30:10.336Z,23.89
2018-07-21T09:31:10.336Z,23.84
2018-07-21T09:32:10.338Z,23.82
2018-07-21T09:33:10.334Z,23.75
2018-07-21T09:34:10.371Z,23.74
2018-07-21T09:35:10.340Z,23.79
2018-07-21T09:36:10.338Z,23.78
2018-07-21T09:37:10.332Z,23.71
2018-07-21T09:38:10.334Z,23.75
2018-07-21T09:39:10.333Z,23.63
2018-07-21T09:40:10.374Z,23.75
2018-07-21T09:41:10.334Z,23.75
2018-07-21T09:42:10.337Z,23.71
2018-07-21T09:43:10.340Z,23.74
2018-07-21T09:44:10.332Z,23.79
2018-07-21T09:45:10.338Z,23.79
2018-07-21T09:46:10.333Z,23.77
2018-07-21T09:47:10.338Z,23.77
2018-07-21T09:48:10.330Z,23.89
2018-07-21T09:49:10.344Z,23.79
2018-07-21T09:50:10.333Z,23.90
2018-07-21T09:51:10.332Z,23.92
2018-07-21T09:52:10.332Z,24.02
2018-07-21T09:53:10.336Z,24.02
2018-07-21T09:54:10.333Z,24.04
2018-07-21T09:55:10.332Z,24.12
2018-07-21T09:56:10.329Z,24.08
2018-07-21T09:57:10.332Z,24.08
2018-07-21T09:58:10.331Z,24.09
2018-07-21T09:59:10.333Z,24.11
2018-07-21T10:00:10.332Z,24.12
2018-07-21T10:01:10.331Z,24.16
2018-07-21T10:02:10.332Z,24.27
2018-07-21T10:03:10.336Z,24.36
2018-07-21T10:04:10.333Z,24.34
2018-07-21T10:05:10.332Z,24.31
2018-07-21T10:06:10.331Z,24.30
2018-07-21T10:07:10.335Z,24.29
2018-07-21T10:08:10.335Z,24.33
2018-07-21T10:09:10.329Z,24.34
2018-07-21T10:10:10.330Z,24.26
2018-07-21T10:11:10.338Z,24.23
2018-07-21T10:12:10.334Z,24.23
2018-07-21T10:13:10.333Z,24.15
2018-07-21T10:14:10.336Z,24.18
2018-07-21T10:15:10.332Z,24.27
2018-07-21T10:16:10.336Z,24.33
2018-07-21T10:17:10.334Z,24.36
2018-07-21T10:18:10.336Z,24.39
2018-07-21T10:19:10.332Z,24.46
2018-07-21T10:20:10.332Z,24.41
2018-07-21T10:21:10.333Z,24.45
2018-07-21T10:22:10.396Z,24.45
2018-07-21T10:23:10.335Z,24.55
2018-07-21T10:24:10.338Z,24.48
2018-07-21T10:25:10.337Z,24.48
2018-07-21T10:26:10.340Z,24.44
2018-07-21T10:27:10.336Z,24.42
2018-07-21T10:28:10.350Z,24.45
2018-07-21T10:29:10.339Z,24.45
2018-07-21T10:30:10.385Z,24.51
2018-07-21T10:31:10.341Z,24.60
2018-07-21T10:32:10.335Z,24.56
2018-07-21T10:33:10.351Z,24.64
2018-07-21T10:34:10.342Z,24.64
2018-07-21T10:35:10.338Z,24.59
2018-07-21T10:36:10.337Z,24.70
2018-07-21T10:37:10.339Z,24.71
2018-07-21T10:38:10.412Z,24.68
2018-07-21T10:39:10.347Z,24.68
2018-07-21T10:40:10.341Z,24.66
2018-07-21T10:41:10.343Z,24.63
2018-07-21T10:42:10.344Z,24.67
2018-07-21T10:43:10.349Z,24.61
2018-07-21T10:44:10.341Z,24.67
2018-07-21T10:45:10.348Z,24.64
2018-07-21T10:46:10.343Z,24.64
2018-07-21T10:47:10.347Z,24.74
2018-07-21T10:48:10.346Z,24.71
2018-07-21T10:49:10.353Z,24.75
2018-07-21T10:50:10.346Z,24.70
2018-07-21T10:51:10.347Z,24.80
2018-07-21T10:52:10.347Z,24.79
2018-07-21T10:53:10.348Z,24.74
2018-07-21T10:54:10.349Z,24.79
2018-07-21T10:55:10.351Z,24.79
2018-07-21T10:56:10.351Z,24.84
2018-07-21T10:57:10.351Z,24.79
2018-07-21T10:58:10.357Z,24.75
2018-07-21T10:59:10.355Z,24.77
2018-07-21T11:00:10.358Z,24.80
2018-07-21T11:01:10.353Z,24.80
2018-07-21T11:02:10.357Z,24.75
2018-07-21T11:03:10.354Z,24.77
2018-07-21T11:04:10.357Z,24.71
2018-07-21T11:05:10.362Z,24.67
2018-07-21T11:06:10.355Z,24.67
2018-07-21T11:07:10.357Z,24.56
2018-07-21T11:08:10.378Z,24.55
2018-07-21T11:09:10.358Z,24.41
2018-07-21T11:10:10.357Z,24.46
2018-07-21T11:11:10.360Z,24.45
2018-07-21T11:12:10.362Z,24.44
2018-07-21T11:13:10.357Z,24.49
2018-07-21T11:14:10.358Z,24.48
2018-07-21T11:15:10.369Z,24.46
2018-07-21T11:16:10.369Z,24.46
2018-07-21T11:17:10.359Z,24.45
2018-07-21T11:18:10.359Z,24.46
2018-07-21T11:19:10.360Z,24.55
2018-07-21T11:20:10.366Z,24.46
2018-07-21T11:21:10.360Z,24.48
2018-07-21T11:22:10.369Z,24.39
2018-07-21T11:23:10.365Z,24.39
2018-07-21T11:24:10.363Z,24.44
2018-07-21T11:25:10.364Z,24.34
2018-07-21T11:26:10.365Z,24.39
2018-07-21T11:27:10.367Z,24.41
2018-07-21T11:28:10.365Z,24.37
2018-07-21T11:29:10.371Z,24.44
2018-07-21T11:30:10.370Z,24.44
2018-07-21T11:31:10.366Z,24.46
2018-07-21T11:32:10.371Z,24.48
2018-07-21T11:33:10.368Z,24.56
2018-07-21T11:34:10.373Z,24.56
2018-07-21T11:35:10.443Z,24.53
2018-07-21T11:36:10.559Z,24.56
2018-07-21T11:37:10.366Z,24.56
2018-07-21T11:38:10.369Z,24.66
2018-07-21T11:39:10.373Z,24.68
2018-07-21T11:40:10.370Z,24.68
2018-07-21T11:41:10.371Z,24.79
2018-07-21T11:42:10.370Z,24.80
2018-07-21T11:43:10.371Z,24.92
2018-07-21T11:44:10.378Z,24.90
2018-07-21T11:45:10.373Z,24.93
2018-07-21T11:46:10.371Z,24.94
2018-07-21T11:47:10.376Z,24.94
2018-07-21T11:48:10.379Z,25.02
2018-07-21T11:49:10.373Z,24.98
2018-07-21T11:50:10.375Z,24.93
2018-07-21T11:51:10.377Z,25.02
2018-07-21T11:52:10.376Z,25.04
2018-07-21T11:53:10.376Z,25.04
2018-07-21T11:54:10.377Z,25.05
2018-07-21T11:55:10.378Z,25.09
2018-07-21T11:56:10.376Z,25.14
2018-07-21T11:57:10.381Z,25.08
2018-07-21T11:58:10.378Z,25.11
2018-07-21T11:59:10.444Z,25.09
2018-07-21T12:00:10.386Z,25.23
2018-07-21T12:01:10.380Z,25.31
2018-07-21T12:02:10.383Z,25.27
2018-07-21T12:03:10.387Z,25.34
2018-07-21T12:04:10.383Z,25.34
2018-07-21T12:05:10.389Z,25.41
2018-07-21T12:06:10.385Z,25.34
2018-07-21T12:07:10.397Z,25.49
2018-07-21T12:08:10.385Z,25.53
2018-07-21T12:09:10.387Z,25.54
2018-07-21T12:10:10.390Z,25.46
2018-07-21T12:11:10.394Z,25.42
2018-07-21T12:12:10.390Z,25.41
2018-07-21T12:13:10.494Z,25.39
2018-07-21T12:14:10.392Z,25.38
2018-07-21T12:15:10.399Z,25.39
2018-07-21T12:16:10.393Z,25.48
2018-07-21T12:17:10.402Z,25.42
2018-07-21T12:18:10.407Z,25.53
2018-07-21T12:19:10.399Z,25.54
2018-07-21T12:20:10.399Z,25.63
2018-07-21T12:21:10.403Z,25.74
2018-07-21T12:22:10.400Z,25.66
2018-07-21T12:23:10.400Z,25.64
2018-07-21T12:24:10.407Z,25.66
2018-07-21T12:25:10.400Z,25.69
2018-07-21T12:26:10.405Z,25.64
2018-07-21T12:27:10.405Z,25.71
2018-07-21T12:28:10.405Z,25.71
2018-07-21T12:29:10.411Z,25.64
2018-07-21T12:30:10.414Z,25.59
2018-07-21T12:31:10.413Z,25.56
2018-07-21T12:32:10.410Z,25.66
2018-07-21T12:33:10.413Z,25.60
2018-07-21T12:34:10.418Z,25.42
2018-07-21T12:35:10.413Z,25.45
2018-07-21T12:36:10.415Z,25.46
2018-07-21T12:37:10.414Z,25.48
2018-07-21T12:38:10.422Z,25.39
2018-07-21T12:39:10.421Z,25.24
2018-07-21T12:40:10.463Z,25.22
2018-07-21T12:41:10.417Z,25.11
2018-07-21T12:42:10.426Z,25.07
2018-07-21T12:43:10.420Z,25.04
2018-07-21T12:44:10.422Z,24.92
2018-07-21T12:45:10.427Z,24.79
2018-07-21T12:46:10.430Z,24.71
2018-07-21T12:47:10.432Z,24.41
2018-07-21T12:48:10.424Z,24.30
2018-07-21T12:49:10.426Z,24.26
2018-07-21T12:50:10.428Z,24.11
2018-07-21T12:51:10.433Z,23.84
2018-07-21T12:52:10.430Z,23.63